Isabella, Missouri
Current Conditions -  °F | °C
As of 2:53 PM on Tuesday 25 Nov 2014 (Local Time) from KBPK Reporting Station
Clear Clear  
Wind Chill: 44°   Ceiling: Unl
Heat Index: 47°   Visibility: 10mi
Dew Point: 15°   Wind: 6mph
Humidity: 28%   Direction: 340°NNW
Pressure: 30.14"   Gusts: NA
Location:  36.58°N, 92.61°W
Report Text: KBPK 252053Z AUTO 34005KT 10SM CLR 08/M09 A3014 RMK AO2 SLP209 T00831094 56028
Loading
Personal Weather Stations






























Interactive Weather Map New forecast layout! Learn more

10-Day Weather Forecast

Advertisements
Track Severe Weather on mobile